sensor_id;sensor_type;location;lat;lon;timestamp;temperature;humidity
64983;DHT22;69426;28.138;-15.436;2023-04-24T00:01:48;19.81;65.09
64983;DHT22;69426;28.138;-15.436;2023-04-24T00:04:15;19.79;65.65
64983;DHT22;69426;28.138;-15.436;2023-04-24T00:06:42;19.87;66.18
64983;DHT22;69426;28.138;-15.436;2023-04-24T00:09:11;19.76;65.93
64983;DHT22;69426;28.138;-15.436;2023-04-24T00:11:37;19.72;66.33
64983;DHT22;69426;28.138;-15.436;2023-04-24T00:14:03;19.75;66.51
64983;DHT22;69426;28.138;-15.436;2023-04-24T00:16:29;19.68;65.71
64983;DHT22;69426;28.138;-15.436;2023-04-24T00:18:55;19.71;65.55
64983;DHT22;69426;28.138;-15.436;2023-04-24T00:21:20;19.75;65.80
64983;DHT22;69426;28.138;-15.436;2023-04-24T00:23:47;19.79;66.21
64983;DHT22;69426;28.138;-15.436;2023-04-24T00:26:13;19.76;65.60
64983;DHT22;69426;28.138;-15.436;2023-04-24T00:28:39;19.81;65.92
64983;DHT22;69426;28.138;-15.436;2023-04-24T00:31:05;19.82;65.63
64983;DHT22;69426;28.138;-15.436;2023-04-24T00:33:31;19.82;65.62
64983;DHT22;69426;28.138;-15.436;2023-04-24T00:35:57;19.85;65.96
64983;DHT22;69426;28.138;-15.436;2023-04-24T00:38:23;19.85;66.43
64983;DHT22;69426;28.138;-15.436;2023-04-24T00:40:49;19.89;66.64
64983;DHT22;69426;28.138;-15.436;2023-04-24T00:43:16;19.85;66.51
64983;DHT22;69426;28.138;-15.436;2023-04-24T00:45:42;19.83;66.00
64983;DHT22;69426;28.138;-15.436;2023-04-24T00:48:08;19.85;66.07
64983;DHT22;69426;28.138;-15.436;2023-04-24T00:50:36;19.85;66.69
64983;DHT22;69426;28.138;-15.436;2023-04-24T00:53:02;19.87;66.77
64983;DHT22;69426;28.138;-15.436;2023-04-24T00:55:28;19.90;66.72
64983;DHT22;69426;28.138;-15.436;2023-04-24T00:57:54;19.90;66.53
64983;DHT22;69426;28.138;-15.436;2023-04-24T01:00:20;19.90;66.58
64983;DHT22;69426;28.138;-15.436;2023-04-24T01:02:46;19.90;66.54
64983;DHT22;69426;28.138;-15.436;2023-04-24T01:05:13;19.92;66.45
64983;DHT22;69426;28.138;-15.436;2023-04-24T01:07:44;19.89;66.19
64983;DHT22;69426;28.138;-15.436;2023-04-24T01:10:11;19.92;66.07
64983;DHT22;69426;28.138;-15.436;2023-04-24T01:12:38;19.93;66.40
64983;DHT22;69426;28.138;-15.436;2023-04-24T01:15:04;19.89;66.68
64983;DHT22;69426;28.138;-15.436;2023-04-24T01:17:31;19.86;66.36
64983;DHT22;69426;28.138;-15.436;2023-04-24T01:19:58;19.82;66.21
64983;DHT22;69426;28.138;-15.436;2023-04-24T01:22:25;19.90;66.09
64983;DHT22;69426;28.138;-15.436;2023-04-24T01:24:52;19.90;65.74
64983;DHT22;69426;28.138;-15.436;2023-04-24T01:27:18;19.87;65.43
64983;DHT22;69426;28.138;-15.436;2023-04-24T01:29:45;19.92;65.30
64983;DHT22;69426;28.138;-15.436;2023-04-24T01:32:13;20.03;65.85
64983;DHT22;69426;28.138;-15.436;2023-04-24T01:34:40;20.02;65.05
64983;DHT22;69426;28.138;-15.436;2023-04-24T01:37:05;20.13;65.18
64983;DHT22;69426;28.138;-15.436;2023-04-24T01:39:32;19.97;64.82
64983;DHT22;69426;28.138;-15.436;2023-04-24T01:41:59;19.90;65.15
64983;DHT22;69426;28.138;-15.436;2023-04-24T01:44:26;19.83;65.22
64983;DHT22;69426;28.138;-15.436;2023-04-24T01:46:52;19.85;65.27
64983;DHT22;69426;28.138;-15.436;2023-04-24T01:49:19;19.76;65.32
64983;DHT22;69426;28.138;-15.436;2023-04-24T01:51:45;19.72;65.23
64983;DHT22;69426;28.138;-15.436;2023-04-24T01:54:12;19.66;64.84
64983;DHT22;69426;28.138;-15.436;2023-04-24T01:56:41;19.69;65.17
64983;DHT22;69426;28.138;-15.436;2023-04-24T01:59:11;19.71;65.75
64983;DHT22;69426;28.138;-15.436;2023-04-24T02:01:37;19.71;66.00
64983;DHT22;69426;28.138;-15.436;2023-04-24T02:04:07;19.75;66.31
64983;DHT22;69426;28.138;-15.436;2023-04-24T02:06:33;19.72;66.30
64983;DHT22;69426;28.138;-15.436;2023-04-24T02:08:59;19.68;66.35
64983;DHT22;69426;28.138;-15.436;2023-04-24T02:11:25;19.62;66.20
64983;DHT22;69426;28.138;-15.436;2023-04-24T02:13:52;19.61;66.10
64983;DHT22;69426;28.138;-15.436;2023-04-24T02:16:17;19.61;65.94
64983;DHT22;69426;28.138;-15.436;2023-04-24T02:18:43;19.59;65.82
64983;DHT22;69426;28.138;-15.436;2023-04-24T02:21:10;19.61;65.90
64983;DHT22;69426;28.138;-15.436;2023-04-24T02:23:36;19.64;66.08
64983;DHT22;69426;28.138;-15.436;2023-04-24T02:26:02;19.64;66.19
64983;DHT22;69426;28.138;-15.436;2023-04-24T02:28:27;19.62;66.43
64983;DHT22;69426;28.138;-15.436;2023-04-24T02:30:53;19.65;66.43
64983;DHT22;69426;28.138;-15.436;2023-04-24T02:33:19;19.61;66.59
64983;DHT22;69426;28.138;-15.436;2023-04-24T02:35:45;19.64;66.41
64983;DHT22;69426;28.138;-15.436;2023-04-24T02:38:10;19.62;66.37
64983;DHT22;69426;28.138;-15.436;2023-04-24T02:40:36;19.62;66.49
64983;DHT22;69426;28.138;-15.436;2023-04-24T02:43:02;19.73;66.43
64983;DHT22;69426;28.138;-15.436;2023-04-24T02:45:27;19.71;66.05
64983;DHT22;69426;28.138;-15.436;2023-04-24T02:47:53;19.69;66.39
64983;DHT22;69426;28.138;-15.436;2023-04-24T02:50:19;19.59;66.76
64983;DHT22;69426;28.138;-15.436;2023-04-24T02:52:44;19.62;66.60
64983;DHT22;69426;28.138;-15.436;2023-04-24T02:55:10;19.58;66.80
64983;DHT22;69426;28.138;-15.436;2023-04-24T02:57:36;19.52;66.60
64983;DHT22;69426;28.138;-15.436;2023-04-24T03:00:02;19.52;66.78
64983;DHT22;69426;28.138;-15.436;2023-04-24T03:02:28;19.48;66.68
64983;DHT22;69426;28.138;-15.436;2023-04-24T03:04:54;19.48;67.08
64983;DHT22;69426;28.138;-15.436;2023-04-24T03:07:20;19.51;67.42
64983;DHT22;69426;28.138;-15.436;2023-04-24T03:09:46;19.52;67.23
64983;DHT22;69426;28.138;-15.436;2023-04-24T03:12:13;19.50;66.79
64983;DHT22;69426;28.138;-15.436;2023-04-24T03:14:38;19.43;66.62
64983;DHT22;69426;28.138;-15.436;2023-04-24T03:17:04;19.39;66.43
64983;DHT22;69426;28.138;-15.436;2023-04-24T03:19:30;19.39;66.70
64983;DHT22;69426;28.138;-15.436;2023-04-24T03:21:56;19.35;66.83
64983;DHT22;69426;28.138;-15.436;2023-04-24T03:24:21;19.32;67.28
64983;DHT22;69426;28.138;-15.436;2023-04-24T03:26:47;19.32;67.52
64983;DHT22;69426;28.138;-15.436;2023-04-24T03:29:13;19.32;67.53
64983;DHT22;69426;28.138;-15.436;2023-04-24T03:31:39;19.32;67.54
64983;DHT22;69426;28.138;-15.436;2023-04-24T03:34:05;19.37;67.89
64983;DHT22;69426;28.138;-15.436;2023-04-24T03:36:30;19.39;68.20
64983;DHT22;69426;28.138;-15.436;2023-04-24T03:38:56;19.28;68.17
64983;DHT22;69426;28.138;-15.436;2023-04-24T03:41:22;19.28;68.08
64983;DHT22;69426;28.138;-15.436;2023-04-24T03:43:48;19.30;68.01
64983;DHT22;69426;28.138;-15.436;2023-04-24T03:46:14;19.30;67.73
64983;DHT22;69426;28.138;-15.436;2023-04-24T03:48:40;19.31;68.06
64983;DHT22;69426;28.138;-15.436;2023-04-24T03:51:06;19.32;68.14
64983;DHT22;69426;28.138;-15.436;2023-04-24T03:53:31;19.35;68.17
64983;DHT22;69426;28.138;-15.436;2023-04-24T03:55:57;19.32;68.17
64983;DHT22;69426;28.138;-15.436;2023-04-24T03:58:23;19.34;68.64
64983;DHT22;69426;28.138;-15.436;2023-04-24T04:00:49;19.34;68.63
64983;DHT22;69426;28.138;-15.436;2023-04-24T04:03:15;19.32;68.32
64983;DHT22;69426;28.138;-15.436;2023-04-24T04:05:40;19.28;68.09
64983;DHT22;69426;28.138;-15.436;2023-04-24T04:08:06;19.34;67.75
64983;DHT22;69426;28.138;-15.436;2023-04-24T04:10:32;19.20;67.00
64983;DHT22;69426;28.138;-15.436;2023-04-24T04:12:57;19.21;67.32
64983;DHT22;69426;28.138;-15.436;2023-04-24T04:15:23;19.21;67.40
64983;DHT22;69426;28.138;-15.436;2023-04-24T04:17:49;19.21;67.63
64983;DHT22;69426;28.138;-15.436;2023-04-24T04:20:14;19.21;67.93
64983;DHT22;69426;28.138;-15.436;2023-04-24T04:22:40;19.20;67.62
64983;DHT22;69426;28.138;-15.436;2023-04-24T04:25:06;19.30;68.30
64983;DHT22;69426;28.138;-15.436;2023-04-24T04:27:32;19.30;68.41
64983;DHT22;69426;28.138;-15.436;2023-04-24T04:30:02;19.25;67.80
64983;DHT22;69426;28.138;-15.436;2023-04-24T04:32:33;19.24;67.70
64983;DHT22;69426;28.138;-15.436;2023-04-24T04:35:00;19.31;67.64
64983;DHT22;69426;28.138;-15.436;2023-04-24T04:37:32;19.30;67.82
64983;DHT22;69426;28.138;-15.436;2023-04-24T04:39:59;19.34;68.13
64983;DHT22;69426;28.138;-15.436;2023-04-24T04:42:26;19.37;68.85
64983;DHT22;69426;28.138;-15.436;2023-04-24T04:44:52;19.35;68.42
64983;DHT22;69426;28.138;-15.436;2023-04-24T04:47:20;19.35;68.28
64983;DHT22;69426;28.138;-15.436;2023-04-24T04:49:50;19.31;67.93
64983;DHT22;69426;28.138;-15.436;2023-04-24T04:52:19;19.32;67.91
64983;DHT22;69426;28.138;-15.436;2023-04-24T04:54:45;19.34;68.04
64983;DHT22;69426;28.138;-15.436;2023-04-24T04:57:11;19.30;67.74
64983;DHT22;69426;28.138;-15.436;2023-04-24T04:59:37;19.32;68.02
64983;DHT22;69426;28.138;-15.436;2023-04-24T05:02:03;19.30;67.91
64983;DHT22;69426;28.138;-15.436;2023-04-24T05:04:29;19.30;67.94
64983;DHT22;69426;28.138;-15.436;2023-04-24T05:06:55;19.34;68.08
64983;DHT22;69426;28.138;-15.436;2023-04-24T05:09:21;19.37;67.89
64983;DHT22;69426;28.138;-15.436;2023-04-24T05:11:47;19.39;68.06
64983;DHT22;69426;28.138;-15.436;2023-04-24T05:14:13;19.44;68.62
64983;DHT22;69426;28.138;-15.436;2023-04-24T05:16:39;19.47;68.60
64983;DHT22;69426;28.138;-15.436;2023-04-24T05:19:05;19.43;68.41
64983;DHT22;69426;28.138;-15.436;2023-04-24T05:21:32;19.35;67.77
64983;DHT22;69426;28.138;-15.436;2023-04-24T05:23:57;19.28;67.49
64983;DHT22;69426;28.138;-15.436;2023-04-24T05:26:23;19.28;67.60
64983;DHT22;69426;28.138;-15.436;2023-04-24T05:28:49;19.24;67.81
64983;DHT22;69426;28.138;-15.436;2023-04-24T05:31:15;19.25;67.70
64983;DHT22;69426;28.138;-15.436;2023-04-24T05:33:43;19.28;67.80
64983;DHT22;69426;28.138;-15.436;2023-04-24T05:36:08;19.27;67.79
64983;DHT22;69426;28.138;-15.436;2023-04-24T05:38:34;19.27;67.77
64983;DHT22;69426;28.138;-15.436;2023-04-24T05:41:00;19.27;67.88
64983;DHT22;69426;28.138;-15.436;2023-04-24T05:43:26;19.25;67.79
64983;DHT22;69426;28.138;-15.436;2023-04-24T05:45:52;19.21;67.49
64983;DHT22;69426;28.138;-15.436;2023-04-24T05:48:19;19.24;67.52
64983;DHT22;69426;28.138;-15.436;2023-04-24T05:50:45;19.20;67.70
64983;DHT22;69426;28.138;-15.436;2023-04-24T05:53:10;19.23;67.70
64983;DHT22;69426;28.138;-15.436;2023-04-24T05:55:36;19.25;67.72
64983;DHT22;69426;28.138;-15.436;2023-04-24T05:58:02;19.23;67.69
64983;DHT22;69426;28.138;-15.436;2023-04-24T06:00:27;19.25;67.76
64983;DHT22;69426;28.138;-15.436;2023-04-24T06:02:54;19.30;67.72
64983;DHT22;69426;28.138;-15.436;2023-04-24T06:05:19;19.30;67.70
64983;DHT22;69426;28.138;-15.436;2023-04-24T06:07:45;19.31;67.65
64983;DHT22;69426;28.138;-15.436;2023-04-24T06:10:11;19.32;67.64
64983;DHT22;69426;28.138;-15.436;2023-04-24T06:12:37;19.30;67.64
64983;DHT22;69426;28.138;-15.436;2023-04-24T06:15:03;19.35;67.66
64983;DHT22;69426;28.138;-15.436;2023-04-24T06:17:29;19.35;67.76
64983;DHT22;69426;28.138;-15.436;2023-04-24T06:19:55;19.35;67.64
64983;DHT22;69426;28.138;-15.436;2023-04-24T06:22:21;19.31;67.65
64983;DHT22;69426;28.138;-15.436;2023-04-24T06:24:47;19.27;67.75
64983;DHT22;69426;28.138;-15.436;2023-04-24T06:27:14;19.21;67.71
64983;DHT22;69426;28.138;-15.436;2023-04-24T06:29:40;19.24;67.50
64983;DHT22;69426;28.138;-15.436;2023-04-24T06:32:05;19.25;67.27
64983;DHT22;69426;28.138;-15.436;2023-04-24T06:34:31;19.25;66.99
64983;DHT22;69426;28.138;-15.436;2023-04-24T06:36:59;19.30;67.26
64983;DHT22;69426;28.138;-15.436;2023-04-24T06:39:25;19.25;67.37
64983;DHT22;69426;28.138;-15.436;2023-04-24T06:41:51;19.28;67.45
64983;DHT22;69426;28.138;-15.436;2023-04-24T06:44:16;19.35;67.38
64983;DHT22;69426;28.138;-15.436;2023-04-24T06:46:42;19.37;67.21
64983;DHT22;69426;28.138;-15.436;2023-04-24T06:49:08;19.35;67.05
64983;DHT22;69426;28.138;-15.436;2023-04-24T06:51:34;19.44;67.25
64983;DHT22;69426;28.138;-15.436;2023-04-24T06:53:59;19.32;67.05
64983;DHT22;69426;28.138;-15.436;2023-04-24T06:56:26;19.30;66.97
64983;DHT22;69426;28.138;-15.436;2023-04-24T06:58:52;19.27;66.97
64983;DHT22;69426;28.138;-15.436;2023-04-24T07:01:18;19.34;67.05
64983;DHT22;69426;28.138;-15.436;2023-04-24T07:03:44;19.32;66.83
64983;DHT22;69426;28.138;-15.436;2023-04-24T07:06:09;19.35;66.84
64983;DHT22;69426;28.138;-15.436;2023-04-24T07:08:38;19.38;67.00
64983;DHT22;69426;28.138;-15.436;2023-04-24T07:11:04;19.41;67.13
64983;DHT22;69426;28.138;-15.436;2023-04-24T07:13:29;19.41;67.15
64983;DHT22;69426;28.138;-15.436;2023-04-24T07:15:55;19.38;67.22
64983;DHT22;69426;28.138;-15.436;2023-04-24T07:18:21;19.43;67.41
64983;DHT22;69426;28.138;-15.436;2023-04-24T07:20:47;19.50;67.39
64983;DHT22;69426;28.138;-15.436;2023-04-24T07:23:15;19.45;67.51
64983;DHT22;69426;28.138;-15.436;2023-04-24T07:25:41;19.44;67.45
64983;DHT22;69426;28.138;-15.436;2023-04-24T07:28:07;19.44;67.47
64983;DHT22;69426;28.138;-15.436;2023-04-24T07:30:32;19.37;67.02
64983;DHT22;69426;28.138;-15.436;2023-04-24T07:32:59;19.38;66.94
64983;DHT22;69426;28.138;-15.436;2023-04-24T07:35:26;19.34;67.22
64983;DHT22;69426;28.138;-15.436;2023-04-24T07:37:55;19.34;67.40
64983;DHT22;69426;28.138;-15.436;2023-04-24T07:40:21;19.32;67.59
64983;DHT22;69426;28.138;-15.436;2023-04-24T07:42:47;19.38;68.15
64983;DHT22;69426;28.138;-15.436;2023-04-24T07:45:16;19.39;67.32
64983;DHT22;69426;28.138;-15.436;2023-04-24T07:47:42;19.41;67.16
64983;DHT22;69426;28.138;-15.436;2023-04-24T07:50:09;19.51;67.07
64983;DHT22;69426;28.138;-15.436;2023-04-24T07:52:35;19.54;66.96
64983;DHT22;69426;28.138;-15.436;2023-04-24T07:55:01;19.58;67.10
64983;DHT22;69426;28.138;-15.436;2023-04-24T07:57:28;19.64;67.19
64983;DHT22;69426;28.138;-15.436;2023-04-24T07:59:54;19.66;67.18
64983;DHT22;69426;28.138;-15.436;2023-04-24T08:02:20;19.66;67.28
64983;DHT22;69426;28.138;-15.436;2023-04-24T08:04:54;19.69;67.19
64983;DHT22;69426;28.138;-15.436;2023-04-24T08:07:20;19.62;66.43
64983;DHT22;69426;28.138;-15.436;2023-04-24T08:09:45;19.55;66.25
64983;DHT22;69426;28.138;-15.436;2023-04-24T08:12:11;19.58;66.54
64983;DHT22;69426;28.138;-15.436;2023-04-24T08:14:37;19.59;66.55
64983;DHT22;69426;28.138;-15.436;2023-04-24T08:17:03;19.66;66.38
64983;DHT22;69426;28.138;-15.436;2023-04-24T08:19:29;19.69;66.57
64983;DHT22;69426;28.138;-15.436;2023-04-24T08:21:54;19.72;67.49
64983;DHT22;69426;28.138;-15.436;2023-04-24T08:24:21;19.73;67.52
64983;DHT22;69426;28.138;-15.436;2023-04-24T08:26:47;19.82;67.41
64983;DHT22;69426;28.138;-15.436;2023-04-24T08:29:16;19.86;67.32
64983;DHT22;69426;28.138;-15.436;2023-04-24T08:31:41;19.93;67.55
64983;DHT22;69426;28.138;-15.436;2023-04-24T08:34:07;19.85;66.72
64983;DHT22;69426;28.138;-15.436;2023-04-24T08:36:33;19.87;66.46
64983;DHT22;69426;28.138;-15.436;2023-04-24T08:38:59;19.99;66.37
64983;DHT22;69426;28.138;-15.436;2023-04-24T08:41:24;20.10;66.13
64983;DHT22;69426;28.138;-15.436;2023-04-24T08:43:51;20.05;66.26
64983;DHT22;69426;28.138;-15.436;2023-04-24T08:46:18;20.10;66.20
64983;DHT22;69426;28.138;-15.436;2023-04-24T08:48:45;20.03;65.81
64983;DHT22;69426;28.138;-15.436;2023-04-24T08:51:11;20.12;65.89
64983;DHT22;69426;28.138;-15.436;2023-04-24T08:53:37;20.13;66.12
64983;DHT22;69426;28.138;-15.436;2023-04-24T08:56:03;20.13;66.00
64983;DHT22;69426;28.138;-15.436;2023-04-24T08:58:30;20.08;65.83
64983;DHT22;69426;28.138;-15.436;2023-04-24T09:00:56;20.06;65.63
64983;DHT22;69426;28.138;-15.436;2023-04-24T09:03:22;20.05;65.82
64983;DHT22;69426;28.138;-15.436;2023-04-24T09:05:49;20.17;66.36
64983;DHT22;69426;28.138;-15.436;2023-04-24T09:08:18;20.26;65.95
64983;DHT22;69426;28.138;-15.436;2023-04-24T09:10:44;20.21;66.62
64983;DHT22;69426;28.138;-15.436;2023-04-24T09:13:10;20.31;66.63
64983;DHT22;69426;28.138;-15.436;2023-04-24T09:15:37;20.23;67.00
64983;DHT22;69426;28.138;-15.436;2023-04-24T09:18:04;20.31;66.78
64983;DHT22;69426;28.138;-15.436;2023-04-24T09:20:29;20.39;66.13
64983;DHT22;69426;28.138;-15.436;2023-04-24T09:22:59;20.47;65.69
64983;DHT22;69426;28.138;-15.436;2023-04-24T09:25:32;20.48;65.79
64983;DHT22;69426;28.138;-15.436;2023-04-24T09:28:02;20.48;65.15
64983;DHT22;69426;28.138;-15.436;2023-04-24T09:30:28;20.41;65.07
64983;DHT22;69426;28.138;-15.436;2023-04-24T09:33:13;20.45;65.87
64983;DHT22;69426;28.138;-15.436;2023-04-24T09:35:50;20.41;66.03
64983;DHT22;69426;28.138;-15.436;2023-04-24T09:38:17;20.47;66.86
64983;DHT22;69426;28.138;-15.436;2023-04-24T09:40:43;20.41;66.66
64983;DHT22;69426;28.138;-15.436;2023-04-24T09:43:11;20.48;66.84
64983;DHT22;69426;28.138;-15.436;2023-04-24T09:45:38;20.58;66.87
64983;DHT22;69426;28.138;-15.436;2023-04-24T09:48:05;20.60;66.82
64983;DHT22;69426;28.138;-15.436;2023-04-24T09:50:32;20.67;67.11
64983;DHT22;69426;28.138;-15.436;2023-04-24T09:53:05;20.61;66.12
64983;DHT22;69426;28.138;-15.436;2023-04-24T09:55:39;20.65;64.82
64983;DHT22;69426;28.138;-15.436;2023-04-24T09:58:07;20.75;64.70
64983;DHT22;69426;28.138;-15.436;2023-04-24T10:00:33;20.74;65.02
64983;DHT22;69426;28.138;-15.436;2023-04-24T10:03:00;20.75;65.50
64983;DHT22;69426;28.138;-15.436;2023-04-24T10:05:31;20.78;65.64
64983;DHT22;69426;28.138;-15.436;2023-04-24T10:08:06;20.68;66.01
64983;DHT22;69426;28.138;-15.436;2023-04-24T10:10:33;20.61;65.79
64983;DHT22;69426;28.138;-15.436;2023-04-24T10:13:00;20.57;66.53
64983;DHT22;69426;28.138;-15.436;2023-04-24T10:15:27;20.40;66.68
64983;DHT22;69426;28.138;-15.436;2023-04-24T10:17:53;20.31;66.98
64983;DHT22;69426;28.138;-15.436;2023-04-24T10:20:24;20.37;67.32
64983;DHT22;69426;28.138;-15.436;2023-04-24T10:22:51;20.48;67.47
64983;DHT22;69426;28.138;-15.436;2023-04-24T10:25:20;20.52;67.39
64983;DHT22;69426;28.138;-15.436;2023-04-24T10:27:47;20.47;66.15
64983;DHT22;69426;28.138;-15.436;2023-04-24T10:30:13;20.47;66.37
64983;DHT22;69426;28.138;-15.436;2023-04-24T10:32:39;20.51;66.10
64983;DHT22;69426;28.138;-15.436;2023-04-24T10:35:09;20.57;65.53
64983;DHT22;69426;28.138;-15.436;2023-04-24T10:38:08;20.64;65.10
64983;DHT22;69426;28.138;-15.436;2023-04-24T10:40:35;20.63;65.40
64983;DHT22;69426;28.138;-15.436;2023-04-24T10:43:08;20.71;65.68
64983;DHT22;69426;28.138;-15.436;2023-04-24T10:45:39;20.60;65.01
64983;DHT22;69426;28.138;-15.436;2023-04-24T10:48:07;20.69;65.33
64983;DHT22;69426;28.138;-15.436;2023-04-24T10:50:47;20.85;65.28
64983;DHT22;69426;28.138;-15.436;2023-04-24T10:53:17;20.89;65.37
64983;DHT22;69426;28.138;-15.436;2023-04-24T10:56:07;20.92;64.80
64983;DHT22;69426;28.138;-15.436;2023-04-24T10:58:41;20.87;66.37
64983;DHT22;69426;28.138;-15.436;2023-04-24T11:01:31;21.00;65.52
64983;DHT22;69426;28.138;-15.436;2023-04-24T11:03:59;20.91;66.25
64983;DHT22;69426;28.138;-15.436;2023-04-24T11:06:33;20.74;66.06
64983;DHT22;69426;28.138;-15.436;2023-04-24T11:09:08;20.67;66.02
64983;DHT22;69426;28.138;-15.436;2023-04-24T11:11:37;20.65;65.30
64983;DHT22;69426;28.138;-15.436;2023-04-24T11:14:06;20.77;66.25
64983;DHT22;69426;28.138;-15.436;2023-04-24T11:21:32;20.77;65.64
64983;DHT22;69426;28.138;-15.436;2023-04-24T11:23:58;20.88;65.79
64983;DHT22;69426;28.138;-15.436;2023-04-24T11:26:24;20.71;65.79
64983;DHT22;69426;28.138;-15.436;2023-04-24T11:29:08;20.74;66.10
64983;DHT22;69426;28.138;-15.436;2023-04-24T11:31:35;20.77;65.63
64983;DHT22;69426;28.138;-15.436;2023-04-24T11:34:11;20.75;65.84
64983;DHT22;69426;28.138;-15.436;2023-04-24T11:36:37;20.77;65.26
64983;DHT22;69426;28.138;-15.436;2023-04-24T11:39:04;20.74;65.13
64983;DHT22;69426;28.138;-15.436;2023-04-24T11:41:30;20.95;65.59
64983;DHT22;69426;28.138;-15.436;2023-04-24T11:43:56;20.98;65.98
64983;DHT22;69426;28.138;-15.436;2023-04-24T11:46:22;20.91;65.82
64983;DHT22;69426;28.138;-15.436;2023-04-24T11:48:47;20.81;66.07
64983;DHT22;69426;28.138;-15.436;2023-04-24T11:51:13;20.85;65.66
64983;DHT22;69426;28.138;-15.436;2023-04-24T11:53:39;20.89;65.36
64983;DHT22;69426;28.138;-15.436;2023-04-24T11:56:05;20.88;65.30
64983;DHT22;69426;28.138;-15.436;2023-04-24T11:58:40;20.92;65.11
64983;DHT22;69426;28.138;-15.436;2023-04-24T12:01:06;21.02;65.80
64983;DHT22;69426;28.138;-15.436;2023-04-24T12:03:32;21.05;65.24
64983;DHT22;69426;28.138;-15.436;2023-04-24T12:06:08;21.05;65.60
64983;DHT22;69426;28.138;-15.436;2023-04-24T12:08:34;21.13;66.04
64983;DHT22;69426;28.138;-15.436;2023-04-24T12:11:01;21.13;66.10
64983;DHT22;69426;28.138;-15.436;2023-04-24T12:13:27;21.09;65.75
64983;DHT22;69426;28.138;-15.436;2023-04-24T12:15:53;21.22;65.92
64983;DHT22;69426;28.138;-15.436;2023-04-24T12:18:22;21.30;65.21
64983;DHT22;69426;28.138;-15.436;2023-04-24T12:20:48;21.32;64.59
64983;DHT22;69426;28.138;-15.436;2023-04-24T12:23:13;21.22;65.41
64983;DHT22;69426;28.138;-15.436;2023-04-24T12:25:39;21.33;64.73
64983;DHT22;69426;28.138;-15.436;2023-04-24T12:30:48;21.39;64.37
64983;DHT22;69426;28.138;-15.436;2023-04-24T12:33:20;21.25;64.22
64983;DHT22;69426;28.138;-15.436;2023-04-24T12:35:48;21.16;64.55
64983;DHT22;69426;28.138;-15.436;2023-04-24T12:38:15;21.20;65.06
64983;DHT22;69426;28.138;-15.436;2023-04-24T12:40:42;21.25;65.01
64983;DHT22;69426;28.138;-15.436;2023-04-24T12:43:19;21.33;64.84
64983;DHT22;69426;28.138;-15.436;2023-04-24T12:45:45;21.45;65.52
64983;DHT22;69426;28.138;-15.436;2023-04-24T12:48:11;21.42;66.17
64983;DHT22;69426;28.138;-15.436;2023-04-24T12:50:38;21.37;65.88
64983;DHT22;69426;28.138;-15.436;2023-04-24T12:53:03;21.43;65.43
64983;DHT22;69426;28.138;-15.436;2023-04-24T12:55:29;21.45;65.03
64983;DHT22;69426;28.138;-15.436;2023-04-24T12:57:55;21.45;65.55
64983;DHT22;69426;28.138;-15.436;2023-04-24T13:00:21;21.33;65.14
64983;DHT22;69426;28.138;-15.436;2023-04-24T13:02:47;21.36;65.85
64983;DHT22;69426;28.138;-15.436;2023-04-24T13:05:13;21.37;65.01
64983;DHT22;69426;28.138;-15.436;2023-04-24T13:07:39;21.35;65.41
64983;DHT22;69426;28.138;-15.436;2023-04-24T13:10:06;21.33;65.86
64983;DHT22;69426;28.138;-15.436;2023-04-24T13:12:32;21.37;64.44
64983;DHT22;69426;28.138;-15.436;2023-04-24T13:14:58;21.39;64.02
64983;DHT22;69426;28.138;-15.436;2023-04-24T13:17:24;21.37;64.02
64983;DHT22;69426;28.138;-15.436;2023-04-24T13:19:50;21.29;64.60
64983;DHT22;69426;28.138;-15.436;2023-04-24T13:22:17;21.37;64.77
64983;DHT22;69426;28.138;-15.436;2023-04-24T13:24:46;21.33;65.35
64983;DHT22;69426;28.138;-15.436;2023-04-24T13:27:16;21.36;64.95
64983;DHT22;69426;28.138;-15.436;2023-04-24T13:29:42;21.39;64.75
64983;DHT22;69426;28.138;-15.436;2023-04-24T13:32:08;21.46;64.55
64983;DHT22;69426;28.138;-15.436;2023-04-24T13:34:34;21.37;64.39
64983;DHT22;69426;28.138;-15.436;2023-04-24T13:37:00;21.39;64.81
64983;DHT22;69426;28.138;-15.436;2023-04-24T13:39:26;21.33;64.38
64983;DHT22;69426;28.138;-15.436;2023-04-24T13:41:53;21.50;64.72
64983;DHT22;69426;28.138;-15.436;2023-04-24T13:44:20;21.54;64.08
64983;DHT22;69426;28.138;-15.436;2023-04-24T13:46:47;21.60;64.34
64983;DHT22;69426;28.138;-15.436;2023-04-24T13:49:13;21.49;65.02
64983;DHT22;69426;28.138;-15.436;2023-04-24T13:51:40;21.56;64.61
64983;DHT22;69426;28.138;-15.436;2023-04-24T13:54:06;21.56;64.41
64983;DHT22;69426;28.138;-15.436;2023-04-24T13:56:32;21.53;64.46
64983;DHT22;69426;28.138;-15.436;2023-04-24T13:58:57;21.64;63.98
64983;DHT22;69426;28.138;-15.436;2023-04-24T14:01:23;21.67;64.39
64983;DHT22;69426;28.138;-15.436;2023-04-24T14:03:53;21.70;64.75
64983;DHT22;69426;28.138;-15.436;2023-04-24T14:06:19;21.81;64.05
64983;DHT22;69426;28.138;-15.436;2023-04-24T14:08:46;21.70;64.39
64983;DHT22;69426;28.138;-15.436;2023-04-24T14:11:12;21.80;64.82
64983;DHT22;69426;28.138;-15.436;2023-04-24T14:13:38;21.93;64.76
64983;DHT22;69426;28.138;-15.436;2023-04-24T14:16:06;22.04;64.17
64983;DHT22;69426;28.138;-15.436;2023-04-24T14:18:31;21.87;64.63
64983;DHT22;69426;28.138;-15.436;2023-04-24T14:20:57;21.85;64.98
64983;DHT22;69426;28.138;-15.436;2023-04-24T14:23:23;21.71;64.04
64983;DHT22;69426;28.138;-15.436;2023-04-24T14:25:49;21.56;64.05
64983;DHT22;69426;28.138;-15.436;2023-04-24T14:28:18;21.66;64.79
64983;DHT22;69426;28.138;-15.436;2023-04-24T14:30:44;21.75;64.17
64983;DHT22;69426;28.138;-15.436;2023-04-24T14:33:10;21.87;64.55
64983;DHT22;69426;28.138;-15.436;2023-04-24T14:35:39;21.81;63.36
64983;DHT22;69426;28.138;-15.436;2023-04-24T14:38:05;21.78;64.53
64983;DHT22;69426;28.138;-15.436;2023-04-24T14:40:31;21.90;64.55
64983;DHT22;69426;28.138;-15.436;2023-04-24T14:42:58;21.85;64.79
64983;DHT22;69426;28.138;-15.436;2023-04-24T14:45:24;21.81;64.19
64983;DHT22;69426;28.138;-15.436;2023-04-24T14:47:50;21.97;64.57
64983;DHT22;69426;28.138;-15.436;2023-04-24T14:50:16;21.67;64.70
64983;DHT22;69426;28.138;-15.436;2023-04-24T14:52:42;21.73;65.14
64983;DHT22;69426;28.138;-15.436;2023-04-24T14:55:08;21.97;64.83
64983;DHT22;69426;28.138;-15.436;2023-04-24T14:57:34;21.80;64.56
64983;DHT22;69426;28.138;-15.436;2023-04-24T15:00:02;21.83;63.82
64983;DHT22;69426;28.138;-15.436;2023-04-24T15:02:29;21.97;64.20
64983;DHT22;69426;28.138;-15.436;2023-04-24T15:04:54;21.67;65.19
64983;DHT22;69426;28.138;-15.436;2023-04-24T15:07:20;21.73;65.97
64983;DHT22;69426;28.138;-15.436;2023-04-24T15:09:46;21.53;65.46